Accueil
METAR-TAF:

METAR-TAF

Aéroports :

Wichita, Kansas, États-Unis

latitude: 37-37N, longitude: 097-16W, altitude: 418 m

Observation

Le bulletin a été fait il y a 23 minutes, à 10:56 UTC
Vent 7 kt de nord/nord-ouest
Température -5°C
Humidité 86%
Pression 1026 hPa
Visibilité: 16.1 km
Ciel clair

METAR: KIAB 101056Z AUTO 34007KT 10SM CLR M05/M07 A3029 RMK AO2 SLP272 T10491070 $

Heure: 05:19 (11:19 UTC)

Prévision

Le bulletin a été fait il y a 1 heure et 19 minutes, à 10:00 UTC
Prévision valable du 10 à 10 UTC au 11 à 16 UTC
Vent 6 kt de direction variable
Visibilité 10 km ou plus
Quelques nuages à une hauteur de 20000 ft

TAF: KIAB 101000Z 1010/1116 VRB06KT 9999 FEW200 QNH3012INS TX08/1021Z TNM07/1012Z

Observations et prévisions météorologiques de plus de 4000 aéroports (messages METAR et TAF).

Les stations disponibles sont représentées par des disques jaunes et rouges sur la carte.

Passer la souris dessus pour voir le nom de la station.

Cliquer dessus pour voir les observations et prévisions météorologiques.

Pour changer de carte: cliquez sur les boutons verts avec une croix noire pour zoomer, sur le bouton vert avec un tiret pour effectuer un zoom arrière, ou sur les flèches vertes pour les cartes adjacentes.


METAR-TAF: